sensor_id;sensor_type;location;lat;lon;timestamp;temperature;humidity
43346;DHT22;28937;51.160;4.146;2023-05-10T00:00:37;19.00;97.70
43346;DHT22;28937;51.160;4.146;2023-05-10T00:03:03;18.90;97.60
43346;DHT22;28937;51.160;4.146;2023-05-10T00:05:30;18.90;97.60
43346;DHT22;28937;51.160;4.146;2023-05-10T00:07:56;19.00;97.70
43346;DHT22;28937;51.160;4.146;2023-05-10T00:10:22;18.90;97.70
43346;DHT22;28937;51.160;4.146;2023-05-10T00:12:47;19.00;97.70
43346;DHT22;28937;51.160;4.146;2023-05-10T00:15:13;19.00;97.60
43346;DHT22;28937;51.160;4.146;2023-05-10T00:17:38;19.00;97.80
43346;DHT22;28937;51.160;4.146;2023-05-10T00:20:04;18.90;97.50
43346;DHT22;28937;51.160;4.146;2023-05-10T00:22:31;18.90;97.40
43346;DHT22;28937;51.160;4.146;2023-05-10T00:24:57;18.90;97.40
43346;DHT22;28937;51.160;4.146;2023-05-10T00:27:23;18.90;97.40
43346;DHT22;28937;51.160;4.146;2023-05-10T00:29:48;18.90;97.40
43346;DHT22;28937;51.160;4.146;2023-05-10T00:32:14;18.80;97.70
43346;DHT22;28937;51.160;4.146;2023-05-10T00:34:40;18.80;97.50
43346;DHT22;28937;51.160;4.146;2023-05-10T00:37:05;18.90;97.40
43346;DHT22;28937;51.160;4.146;2023-05-10T00:39:31;18.80;97.40
43346;DHT22;28937;51.160;4.146;2023-05-10T00:41:57;18.90;97.40
43346;DHT22;28937;51.160;4.146;2023-05-10T00:44:22;18.90;97.30
43346;DHT22;28937;51.160;4.146;2023-05-10T00:46:48;18.90;97.40
43346;DHT22;28937;51.160;4.146;2023-05-10T00:49:15;18.80;97.40
43346;DHT22;28937;51.160;4.146;2023-05-10T00:51:41;18.80;97.40
43346;DHT22;28937;51.160;4.146;2023-05-10T00:54:09;18.80;97.40
43346;DHT22;28937;51.160;4.146;2023-05-10T00:56:36;18.80;97.40
43346;DHT22;28937;51.160;4.146;2023-05-10T00:59:02;18.80;97.50
43346;DHT22;28937;51.160;4.146;2023-05-10T01:01:28;18.80;97.60
43346;DHT22;28937;51.160;4.146;2023-05-10T01:03:55;18.80;97.50
43346;DHT22;28937;51.160;4.146;2023-05-10T01:06:21;18.80;97.50
43346;DHT22;28937;51.160;4.146;2023-05-10T01:08:47;18.80;97.50
43346;DHT22;28937;51.160;4.146;2023-05-10T01:11:13;18.80;97.50
43346;DHT22;28937;51.160;4.146;2023-05-10T01:13:41;18.80;97.70
43346;DHT22;28937;51.160;4.146;2023-05-10T01:16:07;18.80;97.40
43346;DHT22;28937;51.160;4.146;2023-05-10T01:18:36;18.80;97.40
43346;DHT22;28937;51.160;4.146;2023-05-10T01:22:12;18.70;97.40
43346;DHT22;28937;51.160;4.146;2023-05-10T01:33:10;18.70;97.70
43346;DHT22;28937;51.160;4.146;2023-05-10T01:35:47;18.70;97.60
43346;DHT22;28937;51.160;4.146;2023-05-10T01:38:27;18.60;97.60
43346;DHT22;28937;51.160;4.146;2023-05-10T01:43:57;18.60;97.70
43346;DHT22;28937;51.160;4.146;2023-05-10T01:46:36;18.70;97.60
43346;DHT22;28937;51.160;4.146;2023-05-10T01:49:07;18.60;97.70
43346;DHT22;28937;51.160;4.146;2023-05-10T01:51:39;18.60;97.60
43346;DHT22;28937;51.160;4.146;2023-05-10T01:54:08;18.60;97.70
43346;DHT22;28937;51.160;4.146;2023-05-10T01:56:35;18.60;97.60
43346;DHT22;28937;51.160;4.146;2023-05-10T01:59:06;18.60;97.70
43346;DHT22;28937;51.160;4.146;2023-05-10T02:01:36;18.50;97.70
43346;DHT22;28937;51.160;4.146;2023-05-10T02:04:03;18.60;97.60
43346;DHT22;28937;51.160;4.146;2023-05-10T02:06:30;18.60;97.70
43346;DHT22;28937;51.160;4.146;2023-05-10T02:08:58;18.60;97.70
43346;DHT22;28937;51.160;4.146;2023-05-10T02:11:25;18.60;97.60
43346;DHT22;28937;51.160;4.146;2023-05-10T02:13:51;18.50;97.60
43346;DHT22;28937;51.160;4.146;2023-05-10T02:16:23;18.60;97.80
43346;DHT22;28937;51.160;4.146;2023-05-10T02:18:52;18.60;97.70
43346;DHT22;28937;51.160;4.146;2023-05-10T02:21:19;18.60;97.80
43346;DHT22;28937;51.160;4.146;2023-05-10T02:23:46;18.60;97.70
43346;DHT22;28937;51.160;4.146;2023-05-10T02:26:14;18.60;97.90
43346;DHT22;28937;51.160;4.146;2023-05-10T02:28:40;18.60;97.70
43346;DHT22;28937;51.160;4.146;2023-05-10T02:31:07;18.60;98.00
43346;DHT22;28937;51.160;4.146;2023-05-10T02:33:35;18.60;97.70
43346;DHT22;28937;51.160;4.146;2023-05-10T02:36:02;18.40;97.80
43346;DHT22;28937;51.160;4.146;2023-05-10T02:38:30;18.50;97.90
43346;DHT22;28937;51.160;4.146;2023-05-10T02:40:57;18.50;97.80
43346;DHT22;28937;51.160;4.146;2023-05-10T02:43:24;18.50;97.70
43346;DHT22;28937;51.160;4.146;2023-05-10T02:45:51;18.40;97.70
43346;DHT22;28937;51.160;4.146;2023-05-10T02:48:17;18.50;97.60
43346;DHT22;28937;51.160;4.146;2023-05-10T02:50:44;18.40;97.60
43346;DHT22;28937;51.160;4.146;2023-05-10T02:53:13;18.40;97.60
43346;DHT22;28937;51.160;4.146;2023-05-10T02:55:41;18.40;97.50
43346;DHT22;28937;51.160;4.146;2023-05-10T02:58:08;18.50;97.40
43346;DHT22;28937;51.160;4.146;2023-05-10T03:00:34;18.40;97.40
43346;DHT22;28937;51.160;4.146;2023-05-10T03:03:00;18.40;97.80
43346;DHT22;28937;51.160;4.146;2023-05-10T03:05:26;18.40;97.40
43346;DHT22;28937;51.160;4.146;2023-05-10T03:07:52;18.40;97.60
43346;DHT22;28937;51.160;4.146;2023-05-10T03:10:18;18.40;97.40
43346;DHT22;28937;51.160;4.146;2023-05-10T03:13:16;18.40;97.40
43346;DHT22;28937;51.160;4.146;2023-05-10T03:16:03;18.40;97.60
43346;DHT22;28937;51.160;4.146;2023-05-10T03:18:41;18.40;97.50
43346;DHT22;28937;51.160;4.146;2023-05-10T03:21:11;18.20;97.50
43346;DHT22;28937;51.160;4.146;2023-05-10T03:23:43;18.30;97.50
43346;DHT22;28937;51.160;4.146;2023-05-10T03:26:15;18.30;97.60
43346;DHT22;28937;51.160;4.146;2023-05-10T03:28:42;18.30;97.60
43346;DHT22;28937;51.160;4.146;2023-05-10T03:31:09;18.30;97.60
43346;DHT22;28937;51.160;4.146;2023-05-10T03:33:34;18.30;97.60
43346;DHT22;28937;51.160;4.146;2023-05-10T03:36:00;18.30;97.50
43346;DHT22;28937;51.160;4.146;2023-05-10T03:38:26;18.30;97.40
43346;DHT22;28937;51.160;4.146;2023-05-10T03:40:51;18.30;97.40
43346;DHT22;28937;51.160;4.146;2023-05-10T03:43:17;18.30;97.40
43346;DHT22;28937;51.160;4.146;2023-05-10T03:45:42;18.30;97.40
43346;DHT22;28937;51.160;4.146;2023-05-10T03:48:08;18.30;97.30
43346;DHT22;28937;51.160;4.146;2023-05-10T03:50:34;18.30;97.30
43346;DHT22;28937;51.160;4.146;2023-05-10T03:52:59;18.30;97.30
43346;DHT22;28937;51.160;4.146;2023-05-10T03:55:25;18.30;97.30
43346;DHT22;28937;51.160;4.146;2023-05-10T03:57:50;18.20;97.40
43346;DHT22;28937;51.160;4.146;2023-05-10T04:00:16;18.20;97.40
43346;DHT22;28937;51.160;4.146;2023-05-10T04:02:42;18.30;97.40
43346;DHT22;28937;51.160;4.146;2023-05-10T04:05:08;18.50;96.40
43346;DHT22;28937;51.160;4.146;2023-05-10T04:07:34;18.70;95.80
43346;DHT22;28937;51.160;4.146;2023-05-10T04:09:59;18.70;95.50
43346;DHT22;28937;51.160;4.146;2023-05-10T04:12:25;18.80;95.40
43346;DHT22;28937;51.160;4.146;2023-05-10T04:14:51;18.80;95.30
43346;DHT22;28937;51.160;4.146;2023-05-10T04:17:16;18.80;95.30
43346;DHT22;28937;51.160;4.146;2023-05-10T04:19:42;18.80;95.30
43346;DHT22;28937;51.160;4.146;2023-05-10T04:22:07;18.80;95.30
43346;DHT22;28937;51.160;4.146;2023-05-10T04:24:33;18.80;95.30
43346;DHT22;28937;51.160;4.146;2023-05-10T04:26:59;18.80;95.30
43346;DHT22;28937;51.160;4.146;2023-05-10T04:29:24;18.80;95.30
43346;DHT22;28937;51.160;4.146;2023-05-10T04:31:50;18.80;95.30
43346;DHT22;28937;51.160;4.146;2023-05-10T04:34:16;18.80;95.30
43346;DHT22;28937;51.160;4.146;2023-05-10T04:36:41;18.80;95.30
43346;DHT22;28937;51.160;4.146;2023-05-10T04:39:07;18.90;95.30
43346;DHT22;28937;51.160;4.146;2023-05-10T04:41:33;18.80;95.40
43346;DHT22;28937;51.160;4.146;2023-05-10T04:43:59;18.80;95.50
43346;DHT22;28937;51.160;4.146;2023-05-10T04:46:24;18.80;95.60
43346;DHT22;28937;51.160;4.146;2023-05-10T04:48:50;18.80;95.50
43346;DHT22;28937;51.160;4.146;2023-05-10T04:51:16;18.80;95.50
43346;DHT22;28937;51.160;4.146;2023-05-10T04:53:41;18.80;95.50
43346;DHT22;28937;51.160;4.146;2023-05-10T04:56:07;18.80;95.50
43346;DHT22;28937;51.160;4.146;2023-05-10T04:58:32;18.80;95.60
43346;DHT22;28937;51.160;4.146;2023-05-10T05:01:05;18.80;95.50
43346;DHT22;28937;51.160;4.146;2023-05-10T05:03:32;18.90;95.50
43346;DHT22;28937;51.160;4.146;2023-05-10T05:05:57;18.90;95.50
43346;DHT22;28937;51.160;4.146;2023-05-10T05:08:23;18.90;95.60
43346;DHT22;28937;51.160;4.146;2023-05-10T05:10:49;18.80;95.60
43346;DHT22;28937;51.160;4.146;2023-05-10T05:13:15;18.90;95.60
43346;DHT22;28937;51.160;4.146;2023-05-10T05:15:41;18.90;95.60
43346;DHT22;28937;51.160;4.146;2023-05-10T05:18:06;18.90;95.70
43346;DHT22;28937;51.160;4.146;2023-05-10T05:20:33;18.90;95.60
43346;DHT22;28937;51.160;4.146;2023-05-10T05:22:59;18.90;95.60
43346;DHT22;28937;51.160;4.146;2023-05-10T05:25:25;18.90;95.50
43346;DHT22;28937;51.160;4.146;2023-05-10T05:27:51;18.90;95.70
43346;DHT22;28937;51.160;4.146;2023-05-10T05:30:17;18.90;96.00
43346;DHT22;28937;51.160;4.146;2023-05-10T05:32:43;18.90;95.60
43346;DHT22;28937;51.160;4.146;2023-05-10T05:35:09;18.90;95.60
43346;DHT22;28937;51.160;4.146;2023-05-10T05:37:35;18.70;96.20
43346;DHT22;28937;51.160;4.146;2023-05-10T05:40:01;18.40;96.80
43346;DHT22;28937;51.160;4.146;2023-05-10T05:42:27;18.20;97.30
43346;DHT22;28937;51.160;4.146;2023-05-10T05:44:53;18.40;97.10
43346;DHT22;28937;51.160;4.146;2023-05-10T05:47:19;18.40;97.20
43346;DHT22;28937;51.160;4.146;2023-05-10T05:49:44;18.30;97.20
43346;DHT22;28937;51.160;4.146;2023-05-10T05:52:13;18.30;97.30
43346;DHT22;28937;51.160;4.146;2023-05-10T05:54:39;18.40;97.20
43346;DHT22;28937;51.160;4.146;2023-05-10T05:57:05;18.40;97.40
43346;DHT22;28937;51.160;4.146;2023-05-10T05:59:30;18.60;97.00
43346;DHT22;28937;51.160;4.146;2023-05-10T06:01:56;18.40;96.90
43346;DHT22;28937;51.160;4.146;2023-05-10T06:04:22;18.40;97.10
43346;DHT22;28937;51.160;4.146;2023-05-10T06:06:48;18.60;97.00
43346;DHT22;28937;51.160;4.146;2023-05-10T06:09:13;18.60;96.90
43346;DHT22;28937;51.160;4.146;2023-05-10T06:11:39;18.70;96.80
43346;DHT22;28937;51.160;4.146;2023-05-10T06:14:05;18.70;96.80
43346;DHT22;28937;51.160;4.146;2023-05-10T06:16:33;18.70;96.80
43346;DHT22;28937;51.160;4.146;2023-05-10T06:18:59;18.70;96.80
43346;DHT22;28937;51.160;4.146;2023-05-10T06:21:25;18.70;96.90
43346;DHT22;28937;51.160;4.146;2023-05-10T06:23:51;18.80;96.80
43346;DHT22;28937;51.160;4.146;2023-05-10T06:26:16;18.80;96.80
43346;DHT22;28937;51.160;4.146;2023-05-10T06:28:42;18.80;96.70
43346;DHT22;28937;51.160;4.146;2023-05-10T06:31:08;18.60;96.80
43346;DHT22;28937;51.160;4.146;2023-05-10T06:33:34;18.80;96.70
43346;DHT22;28937;51.160;4.146;2023-05-10T06:36:00;18.80;96.80
43346;DHT22;28937;51.160;4.146;2023-05-10T06:38:26;18.90;96.50
43346;DHT22;28937;51.160;4.146;2023-05-10T06:40:52;18.80;96.50
43346;DHT22;28937;51.160;4.146;2023-05-10T06:43:17;18.80;96.40
43346;DHT22;28937;51.160;4.146;2023-05-10T06:45:43;18.70;96.40
43346;DHT22;28937;51.160;4.146;2023-05-10T06:48:08;18.70;96.40
43346;DHT22;28937;51.160;4.146;2023-05-10T06:50:34;18.60;96.60
43346;DHT22;28937;51.160;4.146;2023-05-10T06:53:00;18.40;96.80
43346;DHT22;28937;51.160;4.146;2023-05-10T06:55:27;18.40;97.10
43346;DHT22;28937;51.160;4.146;2023-05-10T06:57:53;18.40;97.00
43346;DHT22;28937;51.160;4.146;2023-05-10T07:00:19;18.30;97.20
43346;DHT22;28937;51.160;4.146;2023-05-10T07:02:45;18.40;97.40
43346;DHT22;28937;51.160;4.146;2023-05-10T07:05:12;18.50;97.20
43346;DHT22;28937;51.160;4.146;2023-05-10T07:07:37;18.50;97.00
43346;DHT22;28937;51.160;4.146;2023-05-10T07:10:03;18.50;97.10
43346;DHT22;28937;51.160;4.146;2023-05-10T07:12:30;18.70;97.10
43346;DHT22;28937;51.160;4.146;2023-05-10T07:14:56;18.90;97.10
43346;DHT22;28937;51.160;4.146;2023-05-10T07:17:21;19.00;97.00
43346;DHT22;28937;51.160;4.146;2023-05-10T07:19:47;19.10;96.90
43346;DHT22;28937;51.160;4.146;2023-05-10T07:22:12;19.20;96.70
43346;DHT22;28937;51.160;4.146;2023-05-10T07:24:38;19.20;96.50
43346;DHT22;28937;51.160;4.146;2023-05-10T07:27:03;19.40;96.40
43346;DHT22;28937;51.160;4.146;2023-05-10T07:29:29;19.30;96.30
43346;DHT22;28937;51.160;4.146;2023-05-10T07:31:55;19.30;96.30
43346;DHT22;28937;51.160;4.146;2023-05-10T07:34:20;19.30;96.10
43346;DHT22;28937;51.160;4.146;2023-05-10T07:36:46;19.30;96.20
43346;DHT22;28937;51.160;4.146;2023-05-10T07:39:12;19.40;96.10
43346;DHT22;28937;51.160;4.146;2023-05-10T07:41:38;19.50;96.10
43346;DHT22;28937;51.160;4.146;2023-05-10T07:44:04;19.50;96.10
43346;DHT22;28937;51.160;4.146;2023-05-10T07:46:30;19.50;96.00
43346;DHT22;28937;51.160;4.146;2023-05-10T07:48:55;19.50;95.90
43346;DHT22;28937;51.160;4.146;2023-05-10T07:51:21;19.60;95.40
43346;DHT22;28937;51.160;4.146;2023-05-10T07:53:47;19.60;95.40
43346;DHT22;28937;51.160;4.146;2023-05-10T07:56:29;19.60;95.60
43346;DHT22;28937;51.160;4.146;2023-05-10T07:59:03;19.60;95.50
43346;DHT22;28937;51.160;4.146;2023-05-10T08:01:31;19.70;95.40
43346;DHT22;28937;51.160;4.146;2023-05-10T08:04:00;19.70;95.40
43346;DHT22;28937;51.160;4.146;2023-05-10T08:06:27;19.70;95.50
43346;DHT22;28937;51.160;4.146;2023-05-10T08:08:53;19.70;95.70
43346;DHT22;28937;51.160;4.146;2023-05-10T08:11:20;19.70;95.80
43346;DHT22;28937;51.160;4.146;2023-05-10T08:13:47;19.70;95.80
43346;DHT22;28937;51.160;4.146;2023-05-10T08:16:13;19.80;95.70
43346;DHT22;28937;51.160;4.146;2023-05-10T08:18:39;19.80;95.60
43346;DHT22;28937;51.160;4.146;2023-05-10T08:21:05;19.80;95.30
43346;DHT22;28937;51.160;4.146;2023-05-10T08:23:31;19.80;95.40
43346;DHT22;28937;51.160;4.146;2023-05-10T08:25:57;19.90;95.30
43346;DHT22;28937;51.160;4.146;2023-05-10T08:28:22;19.90;95.20
43346;DHT22;28937;51.160;4.146;2023-05-10T08:30:49;19.90;95.20
43346;DHT22;28937;51.160;4.146;2023-05-10T08:33:15;20.00;95.00
43346;DHT22;28937;51.160;4.146;2023-05-10T08:35:41;20.00;95.00
43346;DHT22;28937;51.160;4.146;2023-05-10T08:38:06;20.00;95.00
43346;DHT22;28937;51.160;4.146;2023-05-10T08:40:32;20.00;94.90
43346;DHT22;28937;51.160;4.146;2023-05-10T08:43:09;20.10;95.10
43346;DHT22;28937;51.160;4.146;2023-05-10T08:45:40;20.10;94.90
43346;DHT22;28937;51.160;4.146;2023-05-10T08:48:08;20.10;94.40
43346;DHT22;28937;51.160;4.146;2023-05-10T08:50:36;20.10;94.10
43346;DHT22;28937;51.160;4.146;2023-05-10T08:53:04;20.20;94.20
43346;DHT22;28937;51.160;4.146;2023-05-10T08:55:30;20.20;94.10
43346;DHT22;28937;51.160;4.146;2023-05-10T08:57:58;20.10;93.90
43346;DHT22;28937;51.160;4.146;2023-05-10T09:00:23;20.20;94.00
43346;DHT22;28937;51.160;4.146;2023-05-10T09:02:50;20.20;94.10
43346;DHT22;28937;51.160;4.146;2023-05-10T09:05:15;20.20;94.00
43346;DHT22;28937;51.160;4.146;2023-05-10T09:07:42;20.20;93.70
43346;DHT22;28937;51.160;4.146;2023-05-10T09:10:09;20.20;93.80
43346;DHT22;28937;51.160;4.146;2023-05-10T09:12:36;20.20;94.00
43346;DHT22;28937;51.160;4.146;2023-05-10T09:15:02;20.30;94.50
43346;DHT22;28937;51.160;4.146;2023-05-10T09:17:29;20.30;94.70
43346;DHT22;28937;51.160;4.146;2023-05-10T09:20:03;20.30;94.70
43346;DHT22;28937;51.160;4.146;2023-05-10T09:22:30;20.30;94.80
43346;DHT22;28937;51.160;4.146;2023-05-10T09:27:34;20.40;94.80
43346;DHT22;28937;51.160;4.146;2023-05-10T09:30:00;20.40;94.70
43346;DHT22;28937;51.160;4.146;2023-05-10T09:32:56;20.40;95.00
43346;DHT22;28937;51.160;4.146;2023-05-10T09:35:26;20.40;94.80
43346;DHT22;28937;51.160;4.146;2023-05-10T09:37:53;20.40;94.70
43346;DHT22;28937;51.160;4.146;2023-05-10T09:40:22;20.40;94.60
43346;DHT22;28937;51.160;4.146;2023-05-10T09:43:14;20.40;95.00
43346;DHT22;28937;51.160;4.146;2023-05-10T09:45:41;20.40;94.80
43346;DHT22;28937;51.160;4.146;2023-05-10T09:48:06;20.40;94.70
43346;DHT22;28937;51.160;4.146;2023-05-10T09:50:32;20.50;94.70
43346;DHT22;28937;51.160;4.146;2023-05-10T09:53:01;20.50;94.70
43346;DHT22;28937;51.160;4.146;2023-05-10T09:55:41;20.50;94.70
43346;DHT22;28937;51.160;4.146;2023-05-10T09:58:07;20.60;94.80
43346;DHT22;28937;51.160;4.146;2023-05-10T10:00:40;20.60;94.80
43346;DHT22;28937;51.160;4.146;2023-05-10T10:03:07;20.70;94.60
43346;DHT22;28937;51.160;4.146;2023-05-10T10:05:40;20.70;94.50
43346;DHT22;28937;51.160;4.146;2023-05-10T10:08:06;20.70;94.40
43346;DHT22;28937;51.160;4.146;2023-05-10T10:10:33;20.70;94.40
43346;DHT22;28937;51.160;4.146;2023-05-10T10:12:59;20.80;94.30
43346;DHT22;28937;51.160;4.146;2023-05-10T10:15:25;20.80;94.20
43346;DHT22;28937;51.160;4.146;2023-05-10T10:17:52;20.80;94.10
43346;DHT22;28937;51.160;4.146;2023-05-10T10:20:19;20.80;94.10
43346;DHT22;28937;51.160;4.146;2023-05-10T10:22:44;20.80;94.20
43346;DHT22;28937;51.160;4.146;2023-05-10T10:25:13;20.80;94.10
43346;DHT22;28937;51.160;4.146;2023-05-10T10:30:41;20.80;94.10
43346;DHT22;28937;51.160;4.146;2023-05-10T10:35:48;20.80;94.10
43346;DHT22;28937;51.160;4.146;2023-05-10T10:38:15;20.90;94.10
43346;DHT22;28937;51.160;4.146;2023-05-10T10:40:40;20.90;94.20
43346;DHT22;28937;51.160;4.146;2023-05-10T10:43:25;20.90;94.40
43346;DHT22;28937;51.160;4.146;2023-05-10T10:46:17;21.10;94.60
43346;DHT22;28937;51.160;4.146;2023-05-10T10:48:51;21.00;95.20
43346;DHT22;28937;51.160;4.146;2023-05-10T10:51:37;21.10;95.50
43346;DHT22;28937;51.160;4.146;2023-05-10T10:54:10;21.20;95.10
43346;DHT22;28937;51.160;4.146;2023-05-10T10:56:36;21.40;95.20
43346;DHT22;28937;51.160;4.146;2023-05-10T10:59:01;21.30;95.00
43346;DHT22;28937;51.160;4.146;2023-05-10T11:01:35;21.40;95.00
43346;DHT22;28937;51.160;4.146;2023-05-10T11:06:30;21.60;94.70
43346;DHT22;28937;51.160;4.146;2023-05-10T11:11:32;21.60;94.60
43346;DHT22;28937;51.160;4.146;2023-05-10T11:14:06;21.80;94.30
43346;DHT22;28937;51.160;4.146;2023-05-10T11:16:43;21.80;94.20
43346;DHT22;28937;51.160;4.146;2023-05-10T11:19:11;21.80;94.00
43346;DHT22;28937;51.160;4.146;2023-05-10T11:24:37;21.60;94.40
43346;DHT22;28937;51.160;4.146;2023-05-10T11:28:45;21.50;99.90
43346;DHT22;28937;51.160;4.146;2023-05-10T11:31:14;20.60;96.60
43346;DHT22;28937;51.160;4.146;2023-05-10T11:33:51;20.10;98.20
43346;DHT22;28937;51.160;4.146;2023-05-10T11:36:23;19.90;99.50
43346;DHT22;28937;51.160;4.146;2023-05-10T11:38:50;19.70;99.70
43346;DHT22;28937;51.160;4.146;2023-05-10T11:41:18;19.60;99.60
43346;DHT22;28937;51.160;4.146;2023-05-10T11:43:46;19.60;99.60
43346;DHT22;28937;51.160;4.146;2023-05-10T11:46:13;19.60;99.60
43346;DHT22;28937;51.160;4.146;2023-05-10T11:48:40;19.60;99.80
43346;DHT22;28937;51.160;4.146;2023-05-10T11:51:15;19.60;99.90
43346;DHT22;28937;51.160;4.146;2023-05-10T11:53:41;19.60;99.80
43346;DHT22;28937;51.160;4.146;2023-05-10T11:56:10;19.60;99.80
43346;DHT22;28937;51.160;4.146;2023-05-10T11:58:37;19.60;99.90
43346;DHT22;28937;51.160;4.146;2023-05-10T12:01:04;19.60;99.90
43346;DHT22;28937;51.160;4.146;2023-05-10T12:03:31;19.60;99.90
43346;DHT22;28937;51.160;4.146;2023-05-10T12:05:57;19.60;99.90
43346;DHT22;28937;51.160;4.146;2023-05-10T12:08:24;19.60;99.90
43346;DHT22;28937;51.160;4.146;2023-05-10T12:10:52;19.60;99.90
43346;DHT22;28937;51.160;4.146;2023-05-10T12:13:18;19.60;99.90
43346;DHT22;28937;51.160;4.146;2023-05-10T12:15:44;19.60;99.90
43346;DHT22;28937;51.160;4.146;2023-05-10T12:18:10;19.70;99.90
43346;DHT22;28937;51.160;4.146;2023-05-10T12:20:37;19.70;99.90
43346;DHT22;28937;51.160;4.146;2023-05-10T12:23:03;19.70;99.90
43346;DHT22;28937;51.160;4.146;2023-05-10T12:25:36;19.70;99.90
43346;DHT22;28937;51.160;4.146;2023-05-10T12:28:07;19.70;99.90
43346;DHT22;28937;51.160;4.146;2023-05-10T12:30:34;19.70;99.90
43346;DHT22;28937;51.160;4.146;2023-05-10T12:33:09;19.70;99.90
43346;DHT22;28937;51.160;4.146;2023-05-10T12:35:50;19.80;99.90
43346;DHT22;28937;51.160;4.146;2023-05-10T12:38:43;19.80;99.90
43346;DHT22;28937;51.160;4.146;2023-05-10T12:41:11;19.70;99.90
43346;DHT22;28937;51.160;4.146;2023-05-10T12:43:37;19.80;99.90
43346;DHT22;28937;51.160;4.146;2023-05-10T12:46:14;19.80;99.90
43346;DHT22;28937;51.160;4.146;2023-05-10T12:48:41;19.80;99.90
43346;DHT22;28937;51.160;4.146;2023-05-10T12:51:08;19.80;99.90
43346;DHT22;28937;51.160;4.146;2023-05-10T12:53:35;19.80;99.90
43346;DHT22;28937;51.160;4.146;2023-05-10T12:56:01;19.70;99.90
43346;DHT22;28937;51.160;4.146;2023-05-10T12:58:27;19.80;99.90
43346;DHT22;28937;51.160;4.146;2023-05-10T13:00:52;19.80;99.90
43346;DHT22;28937;51.160;4.146;2023-05-10T13:03:18;19.80;99.90
43346;DHT22;28937;51.160;4.146;2023-05-10T13:05:44;19.80;99.90
43346;DHT22;28937;51.160;4.146;2023-05-10T13:08:10;19.80;99.80
43346;DHT22;28937;51.160;4.146;2023-05-10T13:10:35;19.80;99.60
43346;DHT22;28937;51.160;4.146;2023-05-10T13:13:01;19.80;99.50
43346;DHT22;28937;51.160;4.146;2023-05-10T13:15:27;19.80;99.50
43346;DHT22;28937;51.160;4.146;2023-05-10T13:17:53;19.80;99.60
43346;DHT22;28937;51.160;4.146;2023-05-10T13:20:19;19.80;99.60
43346;DHT22;28937;51.160;4.146;2023-05-10T13:22:45;19.80;99.10
43346;DHT22;28937;51.160;4.146;2023-05-10T13:25:11;19.80;98.90
43346;DHT22;28937;51.160;4.146;2023-05-10T13:27:40;19.80;99.00
43346;DHT22;28937;51.160;4.146;2023-05-10T13:30:09;19.80;99.20
43346;DHT22;28937;51.160;4.146;2023-05-10T13:32:36;19.80;99.50
43346;DHT22;28937;51.160;4.146;2023-05-10T13:35:02;19.80;99.60
43346;DHT22;28937;51.160;4.146;2023-05-10T13:37:29;19.80;99.30
43346;DHT22;28937;51.160;4.146;2023-05-10T13:39:55;19.80;98.90
43346;DHT22;28937;51.160;4.146;2023-05-10T13:42:22;19.80;99.00
43346;DHT22;28937;51.160;4.146;2023-05-10T13:44:49;19.80;98.90
43346;DHT22;28937;51.160;4.146;2023-05-10T13:47:15;19.80;98.90
43346;DHT22;28937;51.160;4.146;2023-05-10T13:49:41;19.80;98.70
43346;DHT22;28937;51.160;4.146;2023-05-10T13:52:07;19.80;98.40
43346;DHT22;28937;51.160;4.146;2023-05-10T13:54:39;19.80;98.30
43346;DHT22;28937;51.160;4.146;2023-05-10T13:57:05;19.80;98.40
43346;DHT22;28937;51.160;4.146;2023-05-10T13:59:31;19.80;98.40
43346;DHT22;28937;51.160;4.146;2023-05-10T14:01:57;19.80;98.50
43346;DHT22;28937;51.160;4.146;2023-05-10T14:04:24;19.80;98.40
43346;DHT22;28937;51.160;4.146;2023-05-10T14:06:49;19.80;98.40
43346;DHT22;28937;51.160;4.146;2023-05-10T14:09:15;19.80;98.50
43346;DHT22;28937;51.160;4.146;2023-05-10T14:11:41;19.80;98.60
43346;DHT22;28937;51.160;4.146;2023-05-10T14:14:09;19.80;98.90
43346;DHT22;28937;51.160;4.146;2023-05-10T14:16:35;19.90;98.70
43346;DHT22;28937;51.160;4.146;2023-05-10T14:19:00;19.80;98.60
43346;DHT22;28937;51.160;4.146;2023-05-10T14:21:27;19.80;98.40
43346;DHT22;28937;51.160;4.146;2023-05-10T14:23:54;19.80;97.30
43346;DHT22;28937;51.160;4.146;2023-05-10T14:26:20;19.70;96.70
43346;DHT22;28937;51.160;4.146;2023-05-10T14:28:47;19.70;96.70
43346;DHT22;28937;51.160;4.146;2023-05-10T14:31:12;19.70;96.50
43346;DHT22;28937;51.160;4.146;2023-05-10T14:33:39;19.60;96.60
43346;DHT22;28937;51.160;4.146;2023-05-10T14:36:06;19.60;96.90
43346;DHT22;28937;51.160;4.146;2023-05-10T14:38:31;19.60;97.00
43346;DHT22;28937;51.160;4.146;2023-05-10T14:40:57;19.60;97.10
43346;DHT22;28937;51.160;4.146;2023-05-10T14:43:23;19.60;97.20
43346;DHT22;28937;51.160;4.146;2023-05-10T14:45:48;19.50;97.00
43346;DHT22;28937;51.160;4.146;2023-05-10T14:48:14;19.50;97.10
43346;DHT22;28937;51.160;4.146;2023-05-10T14:50:43;19.50;97.30
43346;DHT22;28937;51.160;4.146;2023-05-10T14:53:09;19.50;97.30
43346;DHT22;28937;51.160;4.146;2023-05-10T14:55:34;19.40;97.40
43346;DHT22;28937;51.160;4.146;2023-05-10T14:58:02;19.40;97.30
43346;DHT22;28937;51.160;4.146;2023-05-10T15:00:28;19.40;97.20
43346;DHT22;28937;51.160;4.146;2023-05-10T15:02:54;19.40;97.30
43346;DHT22;28937;51.160;4.146;2023-05-10T15:05:20;19.40;97.30
43346;DHT22;28937;51.160;4.146;2023-05-10T15:07:46;19.40;97.10
43346;DHT22;28937;51.160;4.146;2023-05-10T15:10:11;19.30;97.30
43346;DHT22;28937;51.160;4.146;2023-05-10T15:12:37;19.30;97.20
43346;DHT22;28937;51.160;4.146;2023-05-10T15:15:04;19.30;97.10
43346;DHT22;28937;51.160;4.146;2023-05-10T15:17:30;19.30;97.30
43346;DHT22;28937;51.160;4.146;2023-05-10T15:19:56;19.30;97.30
43346;DHT22;28937;51.160;4.146;2023-05-10T15:22:21;19.30;97.50
43346;DHT22;28937;51.160;4.146;2023-05-10T15:24:47;19.20;97.60
43346;DHT22;28937;51.160;4.146;2023-05-10T15:27:13;19.20;97.40
43346;DHT22;28937;51.160;4.146;2023-05-10T15:29:38;19.20;97.20
43346;DHT22;28937;51.160;4.146;2023-05-10T15:32:04;19.20;97.30
43346;DHT22;28937;51.160;4.146;2023-05-10T15:34:30;19.20;97.30
43346;DHT22;28937;51.160;4.146;2023-05-10T15:36:55;19.20;97.50
43346;DHT22;28937;51.160;4.146;2023-05-10T15:39:21;19.10;97.90
43346;DHT22;28937;51.160;4.146;2023-05-10T15:41:47;19.20;97.70
43346;DHT22;28937;51.160;4.146;2023-05-10T15:44:13;19.20;97.80
43346;DHT22;28937;51.160;4.146;2023-05-10T15:46:38;19.20;97.80
43346;DHT22;28937;51.160;4.146;2023-05-10T15:49:04;19.00;98.10
43346;DHT22;28937;51.160;4.146;2023-05-10T15:51:31;19.10;98.00
43346;DHT22;28937;51.160;4.146;2023-05-10T15:53:58;19.10;98.30
43346;DHT22;28937;51.160;4.146;2023-05-10T15:56:24;18.80;98.80
43346;DHT22;28937;51.160;4.146;2023-05-10T15:58:51;19.00;98.40
43346;DHT22;28937;51.160;4.146;2023-05-10T16:01:16;18.90;98.60